Time;durP1;ratioP1;P1;durP2;ratioP2;P2;SDS_P1;SDS_P2;PMS_P1;PMS_P2;Temp;Humidity;BMP_temperature;BMP_pressure;BME280_temperature;BME280_humidity;BME280_pressure;Samples;Min_cycle;Max_cycle;Signal;HPM_P1;HPM_P2
2021/06/24 00:00:08;;;;;;;4.28;3.88;;;;;;;18.30;56.98;101480.22;689603;28;17323;-62
2021/06/24 00:00:29;;;;;;;4.25;3.70;;;;;;;18.30;57.20;101477.47;691664;28;22448;-62
2021/06/24 00:01:00;;;;;;;5.15;3.97;;;;;;;18.30;57.28;101476.66;692310;28;59978;-62
2021/06/24 00:01:45;;;;;;;4.07;3.67;;;;;;;18.30;57.27;101468.44;692484;28;153096;-61
2021/06/24 00:02:06;;;;;;;5.95;3.65;;;;;;;18.30;57.06;101471.19;696715;28;22414;-62
2021/06/24 00:02:29;;;;;;;3.97;3.42;;;;;;;18.31;57.11;101459.19;695852;28;46637;-62
2021/06/24 00:02:50;;;;;;;5.05;4.10;;;;;;;18.31;57.12;101465.50;695746;28;46325;-62
2021/06/24 00:03:11;;;;;;;4.43;4.05;;;;;;;18.31;57.25;101468.25;696685;28;19970;-62
2021/06/24 00:03:35;;;;;;;4.32;3.92;;;;;;;18.32;57.15;101464.47;696576;28;23502;-62
2021/06/24 00:03:57;;;;;;;6.85;3.78;;;;;;;18.33;56.99;101457.91;694194;28;83259;-62
2021/06/24 00:04:19;;;;;;;5.13;3.90;;;;;;;18.34;57.08;101462.34;696628;28;36919;-62
2021/06/24 00:04:40;;;;;;;4.25;3.70;;;;;;;18.36;56.97;101459.41;695691;28;46333;-61
2021/06/24 00:05:03;;;;;;;4.18;3.75;;;;;;;18.36;57.04;101453.94;696168;28;19771;-62
2021/06/24 00:05:24;;;;;;;5.75;3.95;;;;;;;18.36;57.08;101460.22;695245;28;69439;-61
2021/06/24 00:05:46;;;;;;;4.80;3.92;;;;;;;18.38;56.82;101457.28;696632;28;23462;-62
2021/06/24 00:06:08;;;;;;;4.80;4.00;;;;;;;18.39;57.08;101460.88;693148;28;46687;-62
2021/06/24 00:06:29;;;;;;;4.38;4.05;;;;;;;18.39;56.83;101450.78;693059;28;46397;-59
2021/06/24 00:06:50;;;;;;;4.57;4.28;;;;;;;18.40;56.72;101452.47;694162;28;22450;-61
2021/06/24 00:07:12;;;;;;;4.60;4.20;;;;;;;18.41;56.72;101454.13;693824;28;21538;-62
2021/06/24 00:07:33;;;;;;;4.85;4.03;;;;;;;18.41;56.70;101450.56;690463;28;44384;-62
2021/06/24 00:07:54;;;;;;;4.50;3.78;;;;;;;18.44;56.84;101452.88;691866;28;22389;-61
2021/06/24 00:08:16;;;;;;;4.40;4.00;;;;;;;18.44;56.77;101452.88;696786;28;21558;-61
2021/06/24 00:08:37;;;;;;;4.50;3.88;;;;;;;18.44;56.71;101450.13;695414;28;45209;-62
2021/06/24 00:08:58;;;;;;;4.20;3.70;;;;;;;18.45;56.58;101449.06;695722;28;23491;-62
2021/06/24 00:09:20;;;;;;;4.22;3.65;;;;;;;18.45;56.77;101443.59;695871;28;22409;-60
2021/06/24 00:09:42;;;;;;;4.97;3.75;;;;;;;18.45;56.58;101444.47;696252;28;23465;-62
2021/06/24 00:10:03;;;;;;;4.13;3.72;;;;;;;18.46;56.67;101445.28;695903;28;46181;-62
2021/06/24 00:10:25;;;;;;;5.55;3.92;;;;;;;18.47;56.66;101456.03;696154;28;42350;-62
2021/06/24 00:10:46;;;;;;;6.32;3.90;;;;;;;18.47;56.48;101447.81;696472;28;23429;-63
2021/06/24 00:11:09;;;;;;;6.00;4.00;;;;;;;18.47;56.48;101449.72;695648;28;45267;-62
2021/06/24 00:11:31;;;;;;;4.80;4.00;;;;;;;18.47;56.41;101449.72;695280;28;67498;-60
2021/06/24 00:11:52;;;;;;;4.90;3.83;;;;;;;18.48;56.39;101448.66;696719;28;23619;-61
2021/06/24 00:12:13;;;;;;;4.15;3.75;;;;;;;18.49;56.30;101447.59;695854;28;45320;-62
2021/06/24 00:12:35;;;;;;;4.07;3.70;;;;;;;18.48;56.38;101444.03;696509;28;22392;-60
2021/06/24 00:12:56;;;;;;;4.78;3.90;;;;;;;18.48;56.37;101443.19;695761;28;44366;-62
2021/06/24 00:13:18;;;;;;;5.60;3.97;;;;;;;18.49;56.43;101447.59;696667;28;22412;-60
2021/06/24 00:13:39;;;;;;;4.97;3.63;;;;;;;18.49;56.36;101453.06;696746;28;22417;-62
2021/06/24 00:14:01;;;;;;;4.65;3.80;;;;;;;18.50;56.19;101454.75;695508;28;45503;-62
2021/06/24 00:14:22;;;;;;;4.28;3.88;;;;;;;18.49;56.23;101448.44;695447;28;44148;-62
2021/06/24 00:14:43;;;;;;;4.63;4.10;;;;;;;18.49;56.38;101453.91;696245;28;24317;-62
2021/06/24 00:15:06;;;;;;;4.28;3.88;;;;;;;18.47;56.33;101444.25;696398;28;14139;-62
2021/06/24 00:15:27;;;;;;;4.30;3.90;;;;;;;18.46;56.23;101446.13;695948;28;43706;-60
2021/06/24 00:15:57;;;;;;;5.15;3.92;;;;;;;18.47;56.45;101447.81;695269;28;58798;-61
2021/06/24 00:16:18;;;;;;;5.28;3.58;;;;;;;18.46;56.21;101443.38;695561;28;46301;-60
2021/06/24 00:16:39;;;;;;;3.90;3.50;;;;;;;18.47;56.40;101449.72;693998;28;23460;-62
2021/06/24 00:17:00;;;;;;;5.10;3.97;;;;;;;18.46;56.43;101445.28;693929;28;21323;-63
2021/06/24 00:17:21;;;;;;;5.25;3.97;;;;;;;18.44;56.45;101441.94;693795;28;22394;-60
2021/06/24 00:17:43;;;;;;;6.83;3.90;;;;;;;18.45;56.51;101446.34;693287;28;39004;-62
2021/06/24 00:18:05;;;;;;;5.47;3.90;;;;;;;18.43;56.44;101449.31;693348;28;45344;-62
2021/06/24 00:18:26;;;;;;;6.88;3.75;;;;;;;18.43;56.59;101445.72;693829;28;46345;-61
2021/06/24 00:18:47;;;;;;;6.10;3.72;;;;;;;18.43;56.58;101451.19;696711;28;22025;-62
2021/06/24 00:19:10;;;;;;;4.97;3.70;;;;;;;18.41;56.56;101450.56;696032;28;22436;-61
2021/06/24 00:19:32;;;;;;;5.05;3.53;;;;;;;18.40;56.58;101451.59;694457;28;65739;-62
2021/06/24 00:19:53;;;;;;;7.00;3.97;;;;;;;18.40;56.83;101451.59;695759;28;46405;-62
2021/06/24 00:20:15;;;;;;;4.53;3.78;;;;;;;18.40;56.58;101454.34;696382;28;22416;-62
2021/06/24 00:20:37;;;;;;;4.43;3.80;;;;;;;18.39;56.72;101447.22;693334;28;41213;-62
2021/06/24 00:20:59;;;;;;;3.90;3.50;;;;;;;18.39;56.68;101449.94;696198;28;21970;-62
2021/06/24 00:21:20;;;;;;;4.85;3.70;;;;;;;18.38;56.60;101454.56;695909;28;32952;-61
2021/06/24 00:21:42;;;;;;;6.57;4.10;;;;;;;18.36;56.60;101451.19;694278;28;22376;-63
2021/06/24 00:22:03;;;;;;;4.65;3.83;;;;;;;18.36;56.73;101452.03;692548;28;23092;-61
2021/06/24 00:22:24;;;;;;;5.13;3.88;;;;;;;18.36;56.64;101457.50;692171;28;45243;-62
2021/06/24 00:22:46;;;;;;;8.82;3.80;;;;;;;18.36;56.54;101453.94;695269;28;23938;-60
2021/06/24 00:23:08;;;;;;;6.32;3.85;;;;;;;18.36;56.57;101454.75;694437;28;46343;-62
2021/06/24 00:23:29;;;;;;;4.45;4.00;;;;;;;18.36;56.67;101456.66;695056;28;22398;-60
2021/06/24 00:23:50;;;;;;;4.53;4.13;;;;;;;18.37;56.58;101458.34;697019;28;21362;-60
2021/06/24 00:24:12;;;;;;;5.38;3.92;;;;;;;18.36;56.56;101457.50;696008;28;20233;-61
2021/06/24 00:24:34;;;;;;;6.07;3.92;;;;;;;18.37;56.61;101461.09;696024;28;44477;-62
2021/06/24 00:24:56;;;;;;;5.03;3.70;;;;;;;18.37;56.56;101459.19;695112;28;68645;-62
2021/06/24 00:25:17;;;;;;;4.57;3.83;;;;;;;18.37;56.69;101459.19;697115;28;4339;-61
2021/06/24 00:25:39;;;;;;;4.05;3.65;;;;;;;18.36;56.75;101460.22;696327;28;23384;-62
2021/06/24 00:26:01;;;;;;;5.63;3.63;;;;;;;18.36;56.74;101457.50;697483;28;1256;-62
2021/06/24 00:26:22;;;;;;;4.78;3.90;;;;;;;18.37;56.79;101452.88;696940;28;22384;-62
2021/06/24 00:26:43;;;;;;;3.90;3.60;;;;;;;18.36;56.86;101456.66;696991;28;22405;-62
2021/06/24 00:27:05;;;;;;;5.82;3.60;;;;;;;18.36;56.79;101459.41;696774;28;23509;-62
2021/06/24 00:27:26;;;;;;;4.93;3.65;;;;;;;18.36;56.84;101454.75;693093;28;45993;-62
2021/06/24 00:27:47;;;;;;;5.22;4.00;;;;;;;18.38;56.67;101451.81;694242;28;11148;-62
2021/06/24 00:28:14;;;;;;;5.35;4.00;;;;;;;18.37;56.79;101456.47;693588;28;23501;-62
2021/06/24 00:28:36;;;;;;;4.20;3.80;;;;;;;18.41;56.81;101464.25;689971;28;135123;-63
2021/06/24 00:28:57;;;;;;;5.25;3.72;;;;;;;18.41;56.66;101450.56;691614;28;45933;-61
2021/06/24 00:29:18;;;;;;;5.05;4.03;;;;;;;18.41;56.60;101458.78;695167;28;1769;-63
2021/06/24 00:29:41;;;;;;;5.35;3.85;;;;;;;18.43;56.62;101462.13;699573;28;843;-62
2021/06/24 00:30:03;;;;;;;6.10;3.75;;;;;;;18.42;56.58;101449.53;696609;28;46377;-62
2021/06/24 00:30:25;;;;;;;6.43;4.00;;;;;;;18.43;56.43;101460.25;697655;28;1973;-61
2021/06/24 00:30:48;;;;;;;4.55;3.97;;;;;;;18.43;56.32;101462.97;697307;28;1756;-62
2021/06/24 00:31:10;;;;;;;4.88;4.25;;;;;;;18.44;56.46;101461.91;696892;28;15334;-62
2021/06/24 00:31:31;;;;;;;4.68;4.10;;;;;;;18.45;56.40;101462.75;696818;28;23512;-61
2021/06/24 00:31:53;;;;;;;5.28;3.92;;;;;;;18.45;56.54;101462.75;696955;28;20851;-62
2021/06/24 00:32:14;;;;;;;4.28;3.88;;;;;;;18.44;56.23;101455.63;695551;28;44385;-60
2021/06/24 00:32:38;;;;;;;5.00;3.88;;;;;;;18.44;56.23;101458.34;696141;28;14083;-61
2021/06/24 00:32:59;;;;;;;4.85;3.78;;;;;;;18.44;56.43;101464.66;696158;28;21548;-62
2021/06/24 00:33:22;;;;;;;3.90;3.50;;;;;;;18.45;56.25;101463.59;696950;28;882;-62
2021/06/24 00:33:44;;;;;;;3.97;3.67;;;;;;;18.44;56.41;101464.66;694626;28;59147;-62
2021/06/24 00:34:05;;;;;;;5.25;4.13;;;;;;;18.44;56.17;101463.81;695987;28;23407;-62
2021/06/24 00:34:27;;;;;;;4.32;3.80;;;;;;;18.46;56.12;101467.16;696425;28;38332;-62
2021/06/24 00:34:50;;;;;;;4.40;3.80;;;;;;;18.41;56.32;101462.34;697369;28;9095;-62
2021/06/24 00:35:14;;;;;;;5.78;4.07;;;;;;;18.41;56.21;101465.06;696950;28;4047;-62
2021/06/24 00:35:35;;;;;;;4.10;3.60;;;;;;;18.42;56.46;101472.22;694749;28;93150;-62
2021/06/24 00:35:56;;;;;;;4.25;3.85;;;;;;;18.39;56.34;101469.91;696196;28;10569;-62
2021/06/24 00:36:17;;;;;;;5.30;4.10;;;;;;;18.41;56.21;101466.97;696911;28;13879;-62
2021/06/24 00:36:39;;;;;;;4.38;3.90;;;;;;;18.41;56.08;101477.91;696470;28;22390;-62
2021/06/24 00:37:01;;;;;;;6.30;3.83;;;;;;;18.40;56.18;101466.16;697308;28;854;-62
2021/06/24 00:37:22;;;;;;;7.30;4.03;;;;;;;18.39;56.38;101474.56;696010;28;46355;-60
2021/06/24 00:37:43;;;;;;;6.05;3.95;;;;;;;18.39;56.32;101471.81;693893;28;14326;-61
2021/06/24 00:38:06;;;;;;;4.55;3.83;;;;;;;18.39;56.49;101474.56;693203;28;44361;-60
2021/06/24 00:38:28;;;;;;;5.25;3.97;;;;;;;18.40;56.27;101473.50;690583;28;46309;-62
2021/06/24 00:38:49;;;;;;;5.75;4.00;;;;;;;18.39;56.46;101469.09;690805;28;44977;-61
2021/06/24 00:39:10;;;;;;;6.60;4.10;;;;;;;18.39;56.27;101469.91;690628;28;23418;-62
2021/06/24 00:39:31;;;;;;;4.78;3.88;;;;;;;18.37;56.43;101463.84;692028;28;22497;-63
2021/06/24 00:39:52;;;;;;;4.78;4.03;;;;;;;18.39;56.26;101466.34;696904;28;20544;-63
2021/06/24 00:40:15;;;;;;;4.63;4.20;;;;;;;18.39;56.56;101463.63;695191;28;40329;-62
2021/06/24 00:40:38;;;;;;;4.35;3.80;;;;;;;18.39;56.44;101467.19;695191;28;68884;-62
2021/06/24 00:40:59;;;;;;;4.70;4.30;;;;;;;18.38;56.48;101465.50;695119;28;45287;-62
2021/06/24 00:41:21;;;;;;;4.50;4.00;;;;;;;18.41;56.44;101464.25;696942;28;1418;-61
2021/06/24 00:41:43;;;;;;;4.15;3.80;;;;;;;18.39;56.31;101461.72;695433;28;45269;-62
2021/06/24 00:42:06;;;;;;;4.60;4.05;;;;;;;18.40;56.22;101465.28;696556;28;17731;-62
2021/06/24 00:42:29;;;;;;;6.00;4.05;;;;;;;18.39;56.57;101455.41;694132;28;69355;-62
2021/06/24 00:42:50;;;;;;;4.65;4.10;;;;;;;18.39;56.46;101458.97;694275;28;69372;-62
2021/06/24 00:43:15;;;;;;;4.53;3.97;;;;;;;18.40;56.21;101460.69;695339;28;46404;-62
2021/06/24 00:43:36;;;;;;;5.47;4.13;;;;;;;18.41;56.44;101461.50;690208;28;92205;-62
2021/06/24 00:43:58;;;;;;;4.47;4.03;;;;;;;18.41;56.25;101453.31;692536;28;23456;-62
2021/06/24 00:44:19;;;;;;;5.80;4.00;;;;;;;18.41;56.41;101451.41;689638;28;46404;-61
2021/06/24 00:44:40;;;;;;;5.93;4.22;;;;;;;18.41;56.33;101456.88;690479;28;23445;-62
2021/06/24 00:45:02;;;;;;;5.07;3.72;;;;;;;18.41;56.30;101454.13;688187;28;21352;-60
2021/06/24 00:45:23;;;;;;;4.70;3.83;;;;;;;18.41;56.44;101456.88;688234;28;64507;-62
2021/06/24 00:45:45;;;;;;;5.32;3.85;;;;;;;18.42;56.53;101449.53;693177;28;23176;-62
2021/06/24 00:46:10;;;;;;;7.25;4.20;;;;;;;18.42;56.24;101452.25;690895;28;60903;-62
2021/06/24 00:46:34;;;;;;;6.05;3.97;;;;;;;18.42;56.31;101455.00;694829;28;1043;-62
2021/06/24 00:46:56;;;;;;;5.90;3.80;;;;;;;18.42;56.07;101453.09;690613;28;46410;-61
2021/06/24 00:47:18;;;;;;;5.80;3.92;;;;;;;18.41;56.18;101448.66;690943;28;70265;-62
2021/06/24 00:47:41;;;;;;;5.57;3.80;;;;;;;18.42;56.29;101446.78;690493;28;67486;-61
2021/06/24 00:48:05;;;;;;;7.88;4.30;;;;;;;18.41;56.45;101448.66;693686;28;998;-62
2021/06/24 00:48:28;;;;;;;7.85;4.20;;;;;;;18.41;56.39;101456.88;688110;28;90327;-62
2021/06/24 00:48:55;;;;;;;6.68;4.32;;;;;;;18.41;56.29;101448.66;691068;28;64501;-62
2021/06/24 00:49:17;;;;;;;5.05;3.95;;;;;;;18.40;56.33;101455.19;691399;28;133833;-61
2021/06/24 00:49:38;;;;;;;4.30;3.90;;;;;;;18.40;56.25;101455.19;695971;28;20763;-62
2021/06/24 00:50:03;;;;;;;4.80;3.88;;;;;;;18.40;56.16;101463.41;693565;28;23504;-62
2021/06/24 00:50:25;;;;;;;4.43;3.80;;;;;;;18.40;56.42;101460.69;690789;28;107930;-62
2021/06/24 00:50:46;;;;;;;6.13;4.07;;;;;;;18.42;56.34;101455.00;695656;28;18044;-63
2021/06/24 00:51:08;;;;;;;5.05;3.80;;;;;;;18.42;56.27;101463.19;692810;28;46297;-62
2021/06/24 00:51:30;;;;;;;5.32;4.03;;;;;;;18.41;56.21;101462.34;691145;28;23558;-62
2021/06/24 00:51:51;;;;;;;5.53;3.90;;;;;;;18.40;56.13;101462.53;690086;28;67498;-63
2021/06/24 00:52:12;;;;;;;7.03;3.90;;;;;;;18.40;56.20;101466.16;694334;28;19770;-62
2021/06/24 00:52:34;;;;;;;6.45;3.90;;;;;;;18.37;56.11;101461.94;693831;28;46350;-62
2021/06/24 00:52:55;;;;;;;6.78;4.00;;;;;;;18.40;56.27;101462.53;694781;28;23484;-62
2021/06/24 00:53:17;;;;;;;4.88;3.88;;;;;;;18.40;56.11;101457.06;694253;28;22420;-62
2021/06/24 00:53:38;;;;;;;4.65;4.00;;;;;;;18.40;56.16;101465.28;695242;28;45739;-62
2021/06/24 00:54:01;;;;;;;5.28;4.38;;;;;;;18.41;56.05;101467.81;695755;28;22517;-62
2021/06/24 00:54:22;;;;;;;4.32;3.72;;;;;;;18.40;56.29;101470.75;691538;28;69374;-61
2021/06/24 00:54:44;;;;;;;5.03;4.10;;;;;;;18.38;56.13;101465.50;693882;28;23418;-62
2021/06/24 00:55:07;;;;;;;5.35;3.90;;;;;;;18.37;56.11;101461.94;692917;28;19756;-62
2021/06/24 00:55:41;;;;;;;4.30;3.63;;;;;;;18.37;56.39;101463.84;692313;28;67500;-62
2021/06/24 00:56:03;;;;;;;4.95;3.75;;;;;;;18.36;56.31;101464.88;691179;28;137455;-62
2021/06/24 00:56:27;;;;;;;4.18;3.78;;;;;;;18.37;56.45;101466.56;690782;28;41986;-61
2021/06/24 00:56:51;;;;;;;5.30;4.15;;;;;;;18.38;56.57;101465.50;689362;28;99172;-62
2021/06/24 00:57:12;;;;;;;4.20;3.70;;;;;;;18.37;56.46;101461.94;692914;28;46248;-62
2021/06/24 00:57:33;;;;;;;4.40;3.90;;;;;;;18.37;56.47;101461.94;693399;28;20287;-62
2021/06/24 00:57:54;;;;;;;4.73;4.00;;;;;;;18.37;56.68;101461.09;693082;28;44236;-62
2021/06/24 00:58:19;;;;;;;4.25;3.58;;;;;;;18.36;56.59;101457.50;692627;28;46400;-62
2021/06/24 00:58:41;;;;;;;5.18;4.00;;;;;;;18.35;56.83;101457.72;690809;28;115107;-62
2021/06/24 00:59:04;;;;;;;4.68;3.97;;;;;;;18.36;56.56;101464.88;691472;28;23466;-62
2021/06/24 00:59:25;;;;;;;6.40;4.20;;;;;;;18.35;56.52;101461.31;688965;28;68785;-62
2021/06/24 00:59:46;;;;;;;4.53;3.88;;;;;;;18.36;56.60;101457.50;691154;28;22399;-62
2021/06/24 01:00:09;;;;;;;4.85;3.78;;;;;;;18.36;56.47;101460.22;689778;28;17829;-62
2021/06/24 01:00:31;;;;;;;5.20;4.00;;;;;;;18.35;56.66;101461.31;689465;28;93142;-62
2021/06/24 01:00:54;;;;;;;6.47;4.40;;;;;;;18.35;56.59;101458.56;691670;28;1852;-62
2021/06/24 01:01:15;;;;;;;6.35;4.20;;;;;;;18.35;56.80;101452.25;689640;28;60822;-62
2021/06/24 01:01:38;;;;;;;5.47;4.10;;;;;;;18.34;56.77;101456.88;689866;28;45177;-62
2021/06/24 01:01:59;;;;;;;5.10;3.88;;;;;;;18.35;56.63;101455.84;691339;28;44152;-62
2021/06/24 01:02:21;;;;;;;3.80;3.50;;;;;;;18.32;56.69;101455.41;692406;28;44320;-62
2021/06/24 01:02:42;;;;;;;3.92;3.53;;;;;;;18.33;56.75;101460.66;689597;28;21550;-62
2021/06/24 01:03:04;;;;;;;4.43;3.83;;;;;;;18.32;56.88;101466.34;691097;28;22430;-62
2021/06/24 01:03:26;;;;;;;4.15;3.75;;;;;;;18.31;56.53;101468.25;691162;28;23506;-61
2021/06/24 01:03:48;;;;;;;5.15;3.90;;;;;;;18.30;56.81;101463.81;689409;28;67476;-62
2021/06/24 01:04:09;;;;;;;4.38;3.97;;;;;;;18.30;56.94;101460.25;688047;28;46318;-62
2021/06/24 01:04:31;;;;;;;4.72;3.95;;;;;;;18.30;56.99;101468.44;689794;28;22265;-62
2021/06/24 01:04:54;;;;;;;4.35;3.70;;;;;;;18.28;56.96;101467.81;693118;28;46321;-60
2021/06/24 01:05:16;;;;;;;4.00;3.70;;;;;;;18.27;56.80;101471.59;691434;28;66904;-62
2021/06/24 01:05:39;;;;;;;4.22;3.83;;;;;;;18.24;56.85;101463.81;688933;28;69517;-62
2021/06/24 01:06:00;;;;;;;4.05;3.67;;;;;;;18.23;57.17;101473.94;691112;28;1864;-62
2021/06/24 01:06:23;;;;;;;4.00;3.65;;;;;;;18.22;57.23;101471.41;692747;28;21600;-62
2021/06/24 01:06:44;;;;;;;5.00;3.65;;;;;;;18.21;57.12;101476.00;692234;28;69430;-62
2021/06/24 01:07:06;;;;;;;5.78;4.15;;;;;;;18.19;57.27;101469.91;693587;28;38784;-62
2021/06/24 01:07:34;;;;;;;4.40;3.90;;;;;;;18.19;57.25;101476.22;691102;28;136106;-62
2021/06/24 01:08:16;;;;;;;4.95;4.15;;;;;;;18.20;57.32;101477.06;692422;28;135994;-63
2021/06/24 01:08:38;;;;;;;4.40;4.00;;;;;;;18.19;57.24;101478.94;690965;28;92996;-62
2021/06/24 01:09:06;;;;;;;4.22;3.83;;;;;;;18.20;57.20;101477.06;689706;28;136125;-63
2021/06/24 01:09:28;;;;;;;4.28;3.60;;;;;;;18.19;57.22;101478.94;690557;28;69435;-60
2021/06/24 01:09:49;;;;;;;5.90;3.90;;;;;;;18.19;57.20;101481.69;693817;28;24316;-62
2021/06/24 01:10:10;;;;;;;5.47;3.67;;;;;;;18.21;57.17;101488.84;693675;28;23480;-62
2021/06/24 01:10:32;;;;;;;5.38;3.92;;;;;;;18.22;57.12;101483.16;691808;28;46271;-62
2021/06/24 01:10:54;;;;;;;6.13;4.35;;;;;;;18.21;57.18;101483.38;688058;28;23492;-63
2021/06/24 01:11:17;;;;;;;6.30;4.40;;;;;;;18.22;57.19;101485.91;687205;28;81825;-62
2021/06/24 01:11:39;;;;;;;4.20;3.80;;;;;;;18.23;57.00;101481.25;690590;28;45248;-62
2021/06/24 01:12:02;;;;;;;4.40;4.10;;;;;;;18.26;56.90;101486.31;690346;28;46314;-62
2021/06/24 01:12:26;;;;;;;4.38;3.92;;;;;;;18.27;56.75;101488.00;686582;28;92206;-62
2021/06/24 01:12:47;;;;;;;5.55;4.00;;;;;;;18.29;56.94;101496.84;691515;28;27335;-62
2021/06/24 01:13:10;;;;;;;4.53;4.13;;;;;;;18.31;56.89;101486.56;692536;28;46387;-62
2021/06/24 01:13:34;;;;;;;4.32;3.92;;;;;;;18.29;56.74;101481.28;691757;28;74709;-62
2021/06/24 01:13:56;;;;;;;4.13;3.78;;;;;;;18.31;56.84;101487.38;691118;28;70197;-62
2021/06/24 01:14:17;;;;;;;4.47;4.07;;;;;;;18.31;56.86;101487.38;692549;28;22432;-62
2021/06/24 01:14:38;;;;;;;5.97;4.05;;;;;;;18.31;56.84;101489.28;694601;28;21556;-62
2021/06/24 01:14:59;;;;;;;5.82;3.88;;;;;;;18.32;56.80;101497.28;696564;28;21277;-62
2021/06/24 01:15:22;;;;;;;4.30;3.80;;;;;;;18.31;56.94;101490.13;694769;28;46314;-62
2021/06/24 01:15:43;;;;;;;4.15;3.80;;;;;;;18.31;56.75;101490.13;695637;28;45235;-62
2021/06/24 01:16:13;;;;;;;5.57;4.00;;;;;;;18.32;56.62;101490.94;692355;28;61254;-62
2021/06/24 01:16:35;;;;;;;5.65;3.83;;;;;;;18.32;56.65;101490.94;694246;28;1607;-62
2021/06/24 01:16:57;;;;;;;5.93;3.90;;;;;;;18.31;56.68;101492.84;691061;28;22064;-62
2021/06/24 01:17:19;;;;;;;6.45;3.92;;;;;;;18.31;56.75;101495.59;685893;28;45343;-63
2021/06/24 01:17:40;;;;;;;5.60;3.80;;;;;;;18.30;57.04;101491.16;686225;28;31887;-62
2021/06/24 01:18:02;;;;;;;4.20;3.80;;;;;;;18.29;56.97;101494.09;687749;28;33395;-62
2021/06/24 01:18:25;;;;;;;5.07;3.78;;;;;;;18.28;57.25;101489.69;689670;28;41033;-62
2021/06/24 01:18:48;;;;;;;4.50;4.10;;;;;;;18.27;57.22;101498.94;687968;28;67503;-62
2021/06/24 01:19:11;;;;;;;4.32;3.80;;;;;;;18.26;57.25;101492.66;685784;28;67800;-61
2021/06/24 01:19:32;;;;;;;4.43;3.85;;;;;;;18.25;57.29;101496.41;685405;28;69723;-62
2021/06/24 01:19:55;;;;;;;6.95;3.95;;;;;;;18.25;57.43;101495.59;689806;28;18630;-62
2021/06/24 01:20:22;;;;;;;6.05;4.13;;;;;;;18.25;57.54;101492.84;688815;28;92261;-62
2021/06/24 01:20:45;;;;;;;5.18;3.90;;;;;;;18.24;57.51;101500.19;690995;28;61792;-62
2021/06/24 01:21:10;;;;;;;5.10;3.83;;;;;;;18.23;57.49;101497.66;693939;28;70225;-62
2021/06/24 01:21:33;;;;;;;5.20;4.05;;;;;;;18.23;57.56;101497.66;693263;28;112549;-62
2021/06/24 01:21:56;;;;;;;5.85;4.25;;;;;;;18.22;57.55;101496.00;696508;28;9029;-62
2021/06/24 01:22:17;;;;;;;5.87;3.97;;;;;;;18.22;57.47;101502.31;692512;28;66782;-62
2021/06/24 01:22:38;;;;;;;5.97;4.30;;;;;;;18.22;57.59;101502.31;694015;28;43706;-62
2021/06/24 01:23:02;;;;;;;6.68;4.20;;;;;;;18.23;57.29;101497.66;692957;28;46300;-62
2021/06/24 01:23:23;;;;;;;4.50;4.10;;;;;;;18.23;57.26;101504.00;692222;28;69371;-61
2021/06/24 01:23:47;;;;;;;5.38;4.05;;;;;;;18.23;57.31;101501.25;692824;28;18170;-62
2021/06/24 01:24:10;;;;;;;4.38;3.97;;;;;;;18.24;57.29;101504.84;686752;28;113640;-62
2021/06/24 01:24:32;;;;;;;5.45;4.05;;;;;;;18.23;57.16;101506.72;691539;28;18657;-62
2021/06/24 01:24:53;;;;;;;4.25;3.85;;;;;;;18.24;57.24;101504.84;690848;28;41015;-62
2021/06/24 01:25:16;;;;;;;5.40;4.10;;;;;;;18.24;57.24;101500.19;688027;28;46404;-62
2021/06/24 01:25:37;;;;;;;6.30;4.00;;;;;;;18.23;57.58;101497.66;688687;28;1116;-61
2021/06/24 01:25:58;;;;;;;4.55;4.00;;;;;;;18.24;57.46;101507.56;688815;28;45260;-63
2021/06/24 01:26:21;;;;;;;4.43;3.97;;;;;;;18.24;57.25;101504.84;692638;28;19855;-61
2021/06/24 01:26:43;;;;;;;5.40;4.30;;;;;;;18.24;57.24;101502.09;689662;28;65428;-63
2021/06/24 01:27:05;;;;;;;5.93;4.00;;;;;;;18.23;57.22;101501.25;691522;28;20227;-62
2021/06/24 01:27:28;;;;;;;5.90;3.97;;;;;;;18.24;57.24;101508.41;688760;28;92064;-63
2021/06/24 01:27:56;;;;;;;4.90;3.80;;;;;;;18.23;57.27;101498.53;693748;28;22390;-62
2021/06/24 01:28:17;;;;;;;5.63;3.80;;;;;;;18.24;57.38;101500.19;689729;28;137993;-61
2021/06/24 01:28:38;;;;;;;4.90;3.88;;;;;;;18.24;57.43;101494.72;692408;28;22203;-62
2021/06/24 01:28:59;;;;;;;5.15;3.90;;;;;;;18.24;57.47;101500.19;693867;28;23517;-62
2021/06/24 01:29:21;;;;;;;5.10;3.92;;;;;;;18.25;57.43;101495.59;691033;28;46469;-62
2021/06/24 01:29:43;;;;;;;5.47;4.10;;;;;;;18.25;57.38;101501.06;693762;28;985;-63
2021/06/24 01:30:06;;;;;;;7.03;4.10;;;;;;;18.25;57.47;101501.88;692974;28;40217;-62
2021/06/24 01:30:29;;;;;;;5.13;3.95;;;;;;;18.26;57.33;101497.25;692242;28;92288;-61
2021/06/24 01:30:50;;;;;;;4.43;3.90;;;;;;;18.25;57.44;101499.16;694794;28;45279;-62
2021/06/24 01:31:12;;;;;;;5.40;3.80;;;;;;;18.26;57.43;101503.59;696084;28;22427;-62
2021/06/24 01:31:34;;;;;;;4.40;3.83;;;;;;;18.26;57.27;101500.84;687122;28;64395;-61
2021/06/24 01:31:56;;;;;;;5.43;4.30;;;;;;;18.26;57.31;101503.59;687576;28;44367;-62
2021/06/24 01:32:18;;;;;;;5.05;3.88;;;;;;;18.26;57.44;101499.97;689497;28;21497;-62
2021/06/24 01:32:40;;;;;;;4.30;3.90;;;;;;;18.25;57.27;101496.41;689895;28;45263;-62
2021/06/24 01:33:03;;;;;;;4.18;3.78;;;;;;;18.25;57.45;101501.06;687549;28;45327;-62
2021/06/24 01:33:25;;;;;;;4.35;3.95;;;;;;;18.24;57.39;101500.19;686779;28;69393;-63
2021/06/24 01:33:47;;;;;;;4.35;3.95;;;;;;;18.23;57.38;101500.41;690343;28;46826;-62
2021/06/24 01:34:10;;;;;;;5.80;4.28;;;;;;;18.22;57.38;101499.56;686826;28;41070;-62
2021/06/24 01:34:34;;;;;;;4.45;3.85;;;;;;;18.22;57.35;101502.31;685947;28;92017;-62
2021/06/24 01:34:55;;;;;;;4.20;3.80;;;;;;;18.22;57.53;101502.31;687822;28;69152;-62
2021/06/24 01:35:19;;;;;;;4.07;3.72;;;;;;;18.21;57.50;101497.88;691160;28;23526;-62
2021/06/24 01:35:40;;;;;;;4.10;3.80;;;;;;;18.21;57.37;101500.59;692241;28;93133;-62
2021/06/24 01:36:05;;;;;;;4.30;3.78;;;;;;;18.20;57.40;101498.94;693943;28;43479;-61
2021/06/24 01:36:30;;;;;;;4.47;4.07;;;;;;;18.22;57.51;101498.75;688714;28;162418;-62
2021/06/24 01:36:54;;;;;;;5.05;4.30;;;;;;;18.23;57.53;101504.00;688478;28;115208;-62
2021/06/24 01:37:17;;;;;;;4.97;4.13;;;;;;;18.22;57.57;101494.09;692010;28;22390;-61
2021/06/24 01:37:39;;;;;;;6.43;4.10;;;;;;;18.21;57.45;101500.59;690100;28;69478;-62
2021/06/24 01:38:03;;;;;;;4.60;3.97;;;;;;;18.21;57.66;101500.59;691323;28;22395;-62
2021/06/24 01:38:24;;;;;;;4.25;3.85;;;;;;;18.21;57.45;101505.25;688515;28;91038;-62
2021/06/24 01:39:05;;;;;;;5.00;3.90;;;;;;;18.21;57.55;101500.59;689484;28;134388;-62
2021/06/24 01:39:31;;;;;;;6.80;3.95;;;;;;;18.21;57.76;101494.31;686740;28;138044;-62
2021/06/24 01:39:52;;;;;;;4.30;3.90;;;;;;;18.22;57.57;101501.47;691530;28;29846;-62
2021/06/24 01:40:14;;;;;;;4.03;3.70;;;;;;;18.22;57.69;101502.31;693678;28;18574;-61
2021/06/24 01:40:35;;;;;;;4.95;3.90;;;;;;;18.23;57.64;101501.25;692975;28;44064;-62
2021/06/24 01:40:56;;;;;;;4.30;3.92;;;;;;;18.24;57.56;101504.84;694802;28;23571;-62
2021/06/24 01:41:18;;;;;;;5.57;3.95;;;;;;;18.23;57.47;101506.72;693534;28;26942;-62
2021/06/24 01:41:40;;;;;;;4.40;3.60;;;;;;;18.23;57.67;101497.66;690908;28;46406;-61
2021/06/24 01:42:05;;;;;;;5.93;4.10;;;;;;;18.21;57.59;101503.34;687034;28;98049;-62
2021/06/24 01:42:31;;;;;;;6.63;4.25;;;;;;;18.23;57.58;101508.59;687392;28;129263;-62
2021/06/24 01:42:53;;;;;;;4.90;4.07;;;;;;;18.23;57.63;101503.13;691747;28;22394;-62
2021/06/24 01:43:15;;;;;;;5.53;3.95;;;;;;;18.21;57.72;101500.59;691719;28;911;-62
2021/06/24 01:43:36;;;;;;;6.00;4.43;;;;;;;18.22;57.68;101501.47;691631;28;23496;-61
2021/06/24 01:43:58;;;;;;;4.88;4.38;;;;;;;18.22;57.69;101499.56;691534;28;22408;-62
2021/06/24 01:44:27;;;;;;;4.75;3.90;;;;;;;18.21;57.97;101495.16;691063;28;32939;-62
2021/06/24 01:44:58;;;;;;;6.40;4.35;;;;;;;18.21;57.82;101505.25;692437;28;61336;-62
2021/06/24 01:45:19;;;;;;;5.82;4.10;;;;;;;18.19;57.78;101500.00;692589;28;28988;-62
2021/06/24 01:45:46;;;;;;;6.78;4.15;;;;;;;18.19;57.86;101500.00;691606;28;69537;-62
2021/06/24 01:46:08;;;;;;;4.60;4.13;;;;;;;18.19;57.96;101500.00;693600;28;38918;-62